sensor_id;sensor_type;location;lat;lon;timestamp;P1;durP1;ratioP1;P2;durP2;ratioP2
17177;SDS011;8704;52.006;4.374;2024-02-21T00:01:41;26.15;;;15.85;;
17177;SDS011;8704;52.006;4.374;2024-02-21T00:04:09;22.15;;;15.43;;
17177;SDS011;8704;52.006;4.374;2024-02-21T00:06:37;28.80;;;16.42;;
17177;SDS011;8704;52.006;4.374;2024-02-21T00:09:05;26.80;;;15.95;;
17177;SDS011;8704;52.006;4.374;2024-02-21T00:11:35;21.83;;;16.17;;
17177;SDS011;8704;52.006;4.374;2024-02-21T00:14:05;25.48;;;17.60;;
17177;SDS011;8704;52.006;4.374;2024-02-21T00:16:33;24.50;;;17.55;;
17177;SDS011;8704;52.006;4.374;2024-02-21T00:19:01;19.95;;;17.42;;
17177;SDS011;8704;52.006;4.374;2024-02-21T00:21:29;22.15;;;16.58;;
17177;SDS011;8704;52.006;4.374;2024-02-21T00:23:57;28.10;;;18.40;;
17177;SDS011;8704;52.006;4.374;2024-02-21T00:26:25;27.30;;;16.38;;
17177;SDS011;8704;52.006;4.374;2024-02-21T00:28:53;25.80;;;16.65;;
17177;SDS011;8704;52.006;4.374;2024-02-21T00:31:23;23.58;;;17.83;;
17177;SDS011;8704;52.006;4.374;2024-02-21T00:33:51;18.70;;;16.60;;
17177;SDS011;8704;52.006;4.374;2024-02-21T00:36:19;23.02;;;15.55;;
17177;SDS011;8704;52.006;4.374;2024-02-21T00:38:47;24.35;;;18.23;;
17177;SDS011;8704;52.006;4.374;2024-02-21T00:41:15;26.08;;;16.42;;
17177;SDS011;8704;52.006;4.374;2024-02-21T00:43:43;22.50;;;17.35;;
17177;SDS011;8704;52.006;4.374;2024-02-21T00:46:11;21.80;;;16.20;;
17177;SDS011;8704;52.006;4.374;2024-02-21T00:48:41;25.65;;;17.13;;
17177;SDS011;8704;52.006;4.374;2024-02-21T00:51:09;28.45;;;16.00;;
17177;SDS011;8704;52.006;4.374;2024-02-21T00:53:37;23.52;;;16.77;;
17177;SDS011;8704;52.006;4.374;2024-02-21T00:56:05;25.35;;;16.83;;
17177;SDS011;8704;52.006;4.374;2024-02-21T00:58:33;23.70;;;15.32;;
17177;SDS011;8704;52.006;4.374;2024-02-21T01:01:02;23.20;;;17.27;;
17177;SDS011;8704;52.006;4.374;2024-02-21T01:03:30;28.05;;;14.00;;
17177;SDS011;8704;52.006;4.374;2024-02-21T01:05:59;23.00;;;16.13;;
17177;SDS011;8704;52.006;4.374;2024-02-21T01:08:28;19.83;;;15.82;;
17177;SDS011;8704;52.006;4.374;2024-02-21T01:10:56;23.10;;;17.15;;
17177;SDS011;8704;52.006;4.374;2024-02-21T01:13:24;21.55;;;17.08;;
17177;SDS011;8704;52.006;4.374;2024-02-21T01:15:52;28.40;;;15.63;;
17177;SDS011;8704;52.006;4.374;2024-02-21T01:18:20;25.23;;;18.38;;
17177;SDS011;8704;52.006;4.374;2024-02-21T01:20:48;31.30;;;15.32;;
17177;SDS011;8704;52.006;4.374;2024-02-21T01:23:18;23.52;;;14.80;;
17177;SDS011;8704;52.006;4.374;2024-02-21T01:25:46;20.35;;;13.88;;
17177;SDS011;8704;52.006;4.374;2024-02-21T01:28:14;27.60;;;15.05;;
17177;SDS011;8704;52.006;4.374;2024-02-21T01:30:42;24.98;;;13.60;;
17177;SDS011;8704;52.006;4.374;2024-02-21T01:33:10;22.63;;;14.52;;
17177;SDS011;8704;52.006;4.374;2024-02-21T01:35:38;22.50;;;15.18;;
17177;SDS011;8704;52.006;4.374;2024-02-21T01:38:06;21.42;;;13.90;;
17177;SDS011;8704;52.006;4.374;2024-02-21T01:40:35;26.42;;;14.93;;
17177;SDS011;8704;52.006;4.374;2024-02-21T01:43:14;23.85;;;14.85;;
17177;SDS011;8704;52.006;4.374;2024-02-21T01:45:43;22.23;;;14.38;;
17177;SDS011;8704;52.006;4.374;2024-02-21T01:48:14;21.67;;;15.70;;
17177;SDS011;8704;52.006;4.374;2024-02-21T01:50:43;17.85;;;15.23;;
17177;SDS011;8704;52.006;4.374;2024-02-21T01:53:11;25.88;;;14.57;;
17177;SDS011;8704;52.006;4.374;2024-02-21T01:55:45;18.60;;;15.50;;
17177;SDS011;8704;52.006;4.374;2024-02-21T01:58:15;21.73;;;14.80;;
17177;SDS011;8704;52.006;4.374;2024-02-21T02:00:44;26.67;;;14.15;;
17177;SDS011;8704;52.006;4.374;2024-02-21T02:03:13;23.73;;;17.98;;
17177;SDS011;8704;52.006;4.374;2024-02-21T02:05:44;23.63;;;13.90;;
17177;SDS011;8704;52.006;4.374;2024-02-21T02:08:12;19.85;;;13.90;;
17177;SDS011;8704;52.006;4.374;2024-02-21T02:10:41;23.10;;;14.55;;
17177;SDS011;8704;52.006;4.374;2024-02-21T02:13:11;22.35;;;15.50;;
17177;SDS011;8704;52.006;4.374;2024-02-21T02:15:40;21.77;;;13.98;;
17177;SDS011;8704;52.006;4.374;2024-02-21T02:18:09;21.13;;;16.35;;
17177;SDS011;8704;52.006;4.374;2024-02-21T02:20:38;19.55;;;14.40;;
17177;SDS011;8704;52.006;4.374;2024-02-21T02:23:09;23.48;;;13.45;;
17177;SDS011;8704;52.006;4.374;2024-02-21T02:25:40;21.40;;;12.77;;
17177;SDS011;8704;52.006;4.374;2024-02-21T02:28:08;19.23;;;14.93;;
17177;SDS011;8704;52.006;4.374;2024-02-21T02:30:36;23.10;;;14.77;;
17177;SDS011;8704;52.006;4.374;2024-02-21T02:33:05;18.58;;;12.27;;
17177;SDS011;8704;52.006;4.374;2024-02-21T02:35:33;22.80;;;13.45;;
17177;SDS011;8704;52.006;4.374;2024-02-21T02:38:01;24.00;;;13.80;;
17177;SDS011;8704;52.006;4.374;2024-02-21T02:40:30;26.63;;;14.82;;
17177;SDS011;8704;52.006;4.374;2024-02-21T02:43:00;22.73;;;15.10;;
17177;SDS011;8704;52.006;4.374;2024-02-21T02:45:28;18.48;;;14.98;;
17177;SDS011;8704;52.006;4.374;2024-02-21T02:47:56;22.55;;;14.77;;
17177;SDS011;8704;52.006;4.374;2024-02-21T02:50:25;21.50;;;14.52;;
17177;SDS011;8704;52.006;4.374;2024-02-21T02:52:53;22.30;;;13.30;;
17177;SDS011;8704;52.006;4.374;2024-02-21T02:55:22;21.42;;;14.18;;
17177;SDS011;8704;52.006;4.374;2024-02-21T02:57:50;19.77;;;14.48;;
17177;SDS011;8704;52.006;4.374;2024-02-21T03:00:20;23.95;;;13.48;;
17177;SDS011;8704;52.006;4.374;2024-02-21T03:02:49;19.40;;;13.93;;
17177;SDS011;8704;52.006;4.374;2024-02-21T03:05:17;21.20;;;15.52;;
17177;SDS011;8704;52.006;4.374;2024-02-21T03:07:46;20.63;;;14.98;;
17177;SDS011;8704;52.006;4.374;2024-02-21T03:10:16;20.60;;;15.35;;
17177;SDS011;8704;52.006;4.374;2024-02-21T03:12:45;21.10;;;16.73;;
17177;SDS011;8704;52.006;4.374;2024-02-21T03:15:13;22.38;;;15.68;;
17177;SDS011;8704;52.006;4.374;2024-02-21T03:17:43;24.13;;;14.80;;
17177;SDS011;8704;52.006;4.374;2024-02-21T03:20:11;17.08;;;15.40;;
17177;SDS011;8704;52.006;4.374;2024-02-21T03:22:39;17.13;;;15.35;;
17177;SDS011;8704;52.006;4.374;2024-02-21T03:25:08;21.27;;;15.10;;
17177;SDS011;8704;52.006;4.374;2024-02-21T03:27:37;18.38;;;15.55;;
17177;SDS011;8704;52.006;4.374;2024-02-21T03:30:06;18.50;;;14.15;;
17177;SDS011;8704;52.006;4.374;2024-02-21T03:32:34;20.80;;;14.27;;
17177;SDS011;8704;52.006;4.374;2024-02-21T03:35:06;18.45;;;14.75;;
17177;SDS011;8704;52.006;4.374;2024-02-21T03:37:34;21.27;;;13.70;;
17177;SDS011;8704;52.006;4.374;2024-02-21T03:40:06;18.80;;;14.50;;
17177;SDS011;8704;52.006;4.374;2024-02-21T03:42:35;23.08;;;15.10;;
17177;SDS011;8704;52.006;4.374;2024-02-21T03:45:03;16.63;;;13.63;;
17177;SDS011;8704;52.006;4.374;2024-02-21T03:47:32;21.88;;;14.52;;
17177;SDS011;8704;52.006;4.374;2024-02-21T03:50:00;19.27;;;16.17;;
17177;SDS011;8704;52.006;4.374;2024-02-21T03:52:30;18.42;;;14.68;;
17177;SDS011;8704;52.006;4.374;2024-02-21T03:54:58;17.90;;;15.18;;
17177;SDS011;8704;52.006;4.374;2024-02-21T03:57:26;17.67;;;15.68;;
17177;SDS011;8704;52.006;4.374;2024-02-21T03:59:54;22.13;;;15.43;;
17177;SDS011;8704;52.006;4.374;2024-02-21T04:02:22;18.88;;;16.20;;
17177;SDS011;8704;52.006;4.374;2024-02-21T04:04:50;18.27;;;16.67;;
17177;SDS011;8704;52.006;4.374;2024-02-21T04:07:18;17.75;;;15.15;;
17177;SDS011;8704;52.006;4.374;2024-02-21T04:09:47;20.70;;;17.67;;
17177;SDS011;8704;52.006;4.374;2024-02-21T04:12:16;18.60;;;16.40;;
17177;SDS011;8704;52.006;4.374;2024-02-21T04:14:44;19.25;;;15.07;;
17177;SDS011;8704;52.006;4.374;2024-02-21T04:17:13;18.52;;;15.57;;
17177;SDS011;8704;52.006;4.374;2024-02-21T04:19:40;23.27;;;16.55;;
17177;SDS011;8704;52.006;4.374;2024-02-21T04:22:09;18.38;;;16.60;;
17177;SDS011;8704;52.006;4.374;2024-02-21T04:24:37;20.27;;;17.67;;
17177;SDS011;8704;52.006;4.374;2024-02-21T04:27:06;18.85;;;17.00;;
17177;SDS011;8704;52.006;4.374;2024-02-21T04:29:34;18.65;;;16.75;;
17177;SDS011;8704;52.006;4.374;2024-02-21T04:32:02;19.60;;;17.35;;
17177;SDS011;8704;52.006;4.374;2024-02-21T04:34:31;19.73;;;17.77;;
17177;SDS011;8704;52.006;4.374;2024-02-21T04:36:59;18.73;;;17.05;;
17177;SDS011;8704;52.006;4.374;2024-02-21T04:39:27;19.50;;;17.55;;
17177;SDS011;8704;52.006;4.374;2024-02-21T04:41:55;20.75;;;18.52;;
17177;SDS011;8704;52.006;4.374;2024-02-21T04:44:25;20.33;;;18.23;;
17177;SDS011;8704;52.006;4.374;2024-02-21T04:46:53;20.33;;;18.10;;
17177;SDS011;8704;52.006;4.374;2024-02-21T04:49:21;22.55;;;18.75;;
17177;SDS011;8704;52.006;4.374;2024-02-21T04:51:49;20.45;;;18.45;;
17177;SDS011;8704;52.006;4.374;2024-02-21T04:54:17;19.98;;;17.88;;
17177;SDS011;8704;52.006;4.374;2024-02-21T04:56:45;20.02;;;18.15;;
17177;SDS011;8704;52.006;4.374;2024-02-21T04:59:15;18.08;;;16.30;;
17177;SDS011;8704;52.006;4.374;2024-02-21T05:01:45;19.00;;;17.08;;
17177;SDS011;8704;52.006;4.374;2024-02-21T05:04:13;17.77;;;15.90;;
17177;SDS011;8704;52.006;4.374;2024-02-21T05:06:41;18.70;;;16.42;;
17177;SDS011;8704;52.006;4.374;2024-02-21T05:09:10;19.25;;;17.00;;
17177;SDS011;8704;52.006;4.374;2024-02-21T05:11:38;20.65;;;18.70;;
17177;SDS011;8704;52.006;4.374;2024-02-21T05:14:06;23.77;;;21.23;;
17177;SDS011;8704;52.006;4.374;2024-02-21T05:16:34;23.45;;;21.65;;
17177;SDS011;8704;52.006;4.374;2024-02-21T05:19:04;21.75;;;19.95;;
17177;SDS011;8704;52.006;4.374;2024-02-21T05:21:32;22.23;;;20.15;;
17177;SDS011;8704;52.006;4.374;2024-02-21T05:24:00;23.33;;;21.25;;
17177;SDS011;8704;52.006;4.374;2024-02-21T05:26:28;23.35;;;21.27;;
17177;SDS011;8704;52.006;4.374;2024-02-21T05:28:56;23.58;;;21.40;;
17177;SDS011;8704;52.006;4.374;2024-02-21T05:31:25;23.00;;;21.10;;
17177;SDS011;8704;52.006;4.374;2024-02-21T05:34:12;22.67;;;20.63;;
17177;SDS011;8704;52.006;4.374;2024-02-21T05:36:40;23.38;;;20.73;;
17177;SDS011;8704;52.006;4.374;2024-02-21T05:39:08;21.42;;;19.02;;
17177;SDS011;8704;52.006;4.374;2024-02-21T05:41:36;22.55;;;20.42;;
17177;SDS011;8704;52.006;4.374;2024-02-21T05:44:04;24.00;;;21.50;;
17177;SDS011;8704;52.006;4.374;2024-02-21T05:46:32;23.60;;;21.50;;
17177;SDS011;8704;52.006;4.374;2024-02-21T05:49:01;24.13;;;21.58;;
17177;SDS011;8704;52.006;4.374;2024-02-21T05:51:33;23.40;;;21.40;;
17177;SDS011;8704;52.006;4.374;2024-02-21T05:54:01;26.73;;;24.52;;
17177;SDS011;8704;52.006;4.374;2024-02-21T05:56:29;25.48;;;22.98;;
17177;SDS011;8704;52.006;4.374;2024-02-21T05:58:57;25.73;;;23.42;;
17177;SDS011;8704;52.006;4.374;2024-02-21T06:01:25;26.92;;;24.50;;
17177;SDS011;8704;52.006;4.374;2024-02-21T06:03:54;25.17;;;22.83;;
17177;SDS011;8704;52.006;4.374;2024-02-21T06:06:22;27.13;;;24.65;;
17177;SDS011;8704;52.006;4.374;2024-02-21T06:08:52;28.80;;;26.40;;
17177;SDS011;8704;52.006;4.374;2024-02-21T06:11:20;29.58;;;27.17;;
17177;SDS011;8704;52.006;4.374;2024-02-21T06:13:48;26.80;;;24.65;;
17177;SDS011;8704;52.006;4.374;2024-02-21T06:16:17;27.60;;;24.77;;
17177;SDS011;8704;52.006;4.374;2024-02-21T06:18:45;28.90;;;26.20;;
17177;SDS011;8704;52.006;4.374;2024-02-21T06:21:13;29.42;;;26.67;;
17177;SDS011;8704;52.006;4.374;2024-02-21T06:23:43;31.17;;;28.33;;
17177;SDS011;8704;52.006;4.374;2024-02-21T06:26:12;32.00;;;29.05;;
17177;SDS011;8704;52.006;4.374;2024-02-21T06:28:39;29.85;;;27.02;;
17177;SDS011;8704;52.006;4.374;2024-02-21T06:31:07;29.73;;;26.95;;
17177;SDS011;8704;52.006;4.374;2024-02-21T06:33:35;29.77;;;26.80;;
17177;SDS011;8704;52.006;4.374;2024-02-21T06:36:04;27.88;;;25.10;;
17177;SDS011;8704;52.006;4.374;2024-02-21T06:38:32;28.65;;;25.88;;
17177;SDS011;8704;52.006;4.374;2024-02-21T06:41:00;28.38;;;25.35;;
17177;SDS011;8704;52.006;4.374;2024-02-21T06:43:30;28.35;;;25.40;;
17177;SDS011;8704;52.006;4.374;2024-02-21T06:45:58;29.63;;;26.75;;
17177;SDS011;8704;52.006;4.374;2024-02-21T06:48:27;29.30;;;26.52;;
17177;SDS011;8704;52.006;4.374;2024-02-21T06:50:55;28.70;;;25.90;;
17177;SDS011;8704;52.006;4.374;2024-02-21T06:53:23;31.58;;;28.38;;
17177;SDS011;8704;52.006;4.374;2024-02-21T06:55:51;30.77;;;27.92;;
17177;SDS011;8704;52.006;4.374;2024-02-21T06:58:19;30.08;;;27.38;;
17177;SDS011;8704;52.006;4.374;2024-02-21T07:00:48;31.92;;;28.83;;
17177;SDS011;8704;52.006;4.374;2024-02-21T07:03:17;30.33;;;27.65;;
17177;SDS011;8704;52.006;4.374;2024-02-21T07:05:45;30.45;;;27.63;;
17177;SDS011;8704;52.006;4.374;2024-02-21T07:08:13;31.67;;;28.58;;
17177;SDS011;8704;52.006;4.374;2024-02-21T07:10:41;27.23;;;24.77;;
17177;SDS011;8704;52.006;4.374;2024-02-21T07:13:10;28.88;;;26.15;;
17177;SDS011;8704;52.006;4.374;2024-02-21T07:15:38;30.42;;;27.48;;
17177;SDS011;8704;52.006;4.374;2024-02-21T07:18:07;29.83;;;25.60;;
17177;SDS011;8704;52.006;4.374;2024-02-21T07:20:35;30.08;;;27.27;;
17177;SDS011;8704;52.006;4.374;2024-02-21T07:23:03;28.33;;;25.48;;
17177;SDS011;8704;52.006;4.374;2024-02-21T07:25:32;30.70;;;26.48;;
17177;SDS011;8704;52.006;4.374;2024-02-21T07:28:00;29.65;;;26.08;;
17177;SDS011;8704;52.006;4.374;2024-02-21T07:30:28;31.63;;;27.33;;
17177;SDS011;8704;52.006;4.374;2024-02-21T07:32:55;31.23;;;28.15;;
17177;SDS011;8704;52.006;4.374;2024-02-21T07:35:25;30.73;;;27.67;;
17177;SDS011;8704;52.006;4.374;2024-02-21T07:37:53;30.15;;;27.08;;
17177;SDS011;8704;52.006;4.374;2024-02-21T07:40:21;30.60;;;27.42;;
17177;SDS011;8704;52.006;4.374;2024-02-21T07:42:49;30.05;;;27.15;;
17177;SDS011;8704;52.006;4.374;2024-02-21T07:45:17;32.13;;;28.40;;
17177;SDS011;8704;52.006;4.374;2024-02-21T07:47:48;30.20;;;27.08;;
17177;SDS011;8704;52.006;4.374;2024-02-21T07:50:16;29.08;;;26.10;;
17177;SDS011;8704;52.006;4.374;2024-02-21T07:52:46;26.33;;;23.70;;
17177;SDS011;8704;52.006;4.374;2024-02-21T07:55:14;25.30;;;22.75;;
17177;SDS011;8704;52.006;4.374;2024-02-21T07:57:42;27.15;;;24.58;;
17177;SDS011;8704;52.006;4.374;2024-02-21T08:00:10;29.23;;;26.30;;
17177;SDS011;8704;52.006;4.374;2024-02-21T08:02:45;28.80;;;24.10;;
17177;SDS011;8704;52.006;4.374;2024-02-21T08:05:13;26.83;;;24.05;;
17177;SDS011;8704;52.006;4.374;2024-02-21T08:07:42;23.95;;;21.48;;
17177;SDS011;8704;52.006;4.374;2024-02-21T08:10:11;26.48;;;24.00;;
17177;SDS011;8704;52.006;4.374;2024-02-21T08:12:39;33.03;;;26.70;;
17177;SDS011;8704;52.006;4.374;2024-02-21T08:15:08;26.63;;;24.23;;
17177;SDS011;8704;52.006;4.374;2024-02-21T08:17:37;28.83;;;25.88;;
17177;SDS011;8704;52.006;4.374;2024-02-21T08:20:05;29.58;;;26.48;;
17177;SDS011;8704;52.006;4.374;2024-02-21T08:22:36;29.77;;;26.65;;
17177;SDS011;8704;52.006;4.374;2024-02-21T08:25:05;28.67;;;24.10;;
17177;SDS011;8704;52.006;4.374;2024-02-21T08:27:35;27.15;;;22.88;;
17177;SDS011;8704;52.006;4.374;2024-02-21T08:30:05;26.63;;;24.00;;
17177;SDS011;8704;52.006;4.374;2024-02-21T08:32:34;25.92;;;22.25;;
17177;SDS011;8704;52.006;4.374;2024-02-21T08:35:02;26.95;;;22.83;;
17177;SDS011;8704;52.006;4.374;2024-02-21T08:37:31;29.27;;;23.38;;
17177;SDS011;8704;52.006;4.374;2024-02-21T08:39:59;24.25;;;20.73;;
17177;SDS011;8704;52.006;4.374;2024-02-21T08:42:31;24.42;;;22.00;;
17177;SDS011;8704;52.006;4.374;2024-02-21T08:45:01;23.40;;;20.90;;
17177;SDS011;8704;52.006;4.374;2024-02-21T08:47:30;23.55;;;21.17;;
17177;SDS011;8704;52.006;4.374;2024-02-21T08:49:58;26.10;;;19.95;;
17177;SDS011;8704;52.006;4.374;2024-02-21T08:52:40;20.48;;;18.27;;
17177;SDS011;8704;52.006;4.374;2024-02-21T08:55:09;25.27;;;21.35;;
17177;SDS011;8704;52.006;4.374;2024-02-21T08:57:37;22.67;;;20.30;;
17177;SDS011;8704;52.006;4.374;2024-02-21T09:00:07;22.55;;;20.20;;
17177;SDS011;8704;52.006;4.374;2024-02-21T09:02:37;22.53;;;20.23;;
17177;SDS011;8704;52.006;4.374;2024-02-21T09:05:07;25.80;;;20.02;;
17177;SDS011;8704;52.006;4.374;2024-02-21T09:07:35;21.40;;;19.25;;
17177;SDS011;8704;52.006;4.374;2024-02-21T09:10:04;21.00;;;16.88;;
17177;SDS011;8704;52.006;4.374;2024-02-21T09:12:33;21.42;;;17.65;;
17177;SDS011;8704;52.006;4.374;2024-02-21T09:15:01;23.25;;;20.85;;
17177;SDS011;8704;52.006;4.374;2024-02-21T09:17:31;22.30;;;19.90;;
17177;SDS011;8704;52.006;4.374;2024-02-21T09:19:59;24.77;;;21.80;;
17177;SDS011;8704;52.006;4.374;2024-02-21T09:22:29;22.88;;;19.83;;
17177;SDS011;8704;52.006;4.374;2024-02-21T09:25:01;24.63;;;19.98;;
17177;SDS011;8704;52.006;4.374;2024-02-21T09:27:29;20.45;;;18.45;;
17177;SDS011;8704;52.006;4.374;2024-02-21T09:29:58;21.80;;;18.20;;
17177;SDS011;8704;52.006;4.374;2024-02-21T09:32:26;22.20;;;18.25;;
17177;SDS011;8704;52.006;4.374;2024-02-21T09:34:56;20.45;;;18.23;;
17177;SDS011;8704;52.006;4.374;2024-02-21T09:37:28;18.20;;;16.30;;
17177;SDS011;8704;52.006;4.374;2024-02-21T09:39:56;18.23;;;15.32;;
17177;SDS011;8704;52.006;4.374;2024-02-21T09:42:26;22.23;;;17.08;;
17177;SDS011;8704;52.006;4.374;2024-02-21T09:45:04;19.52;;;14.75;;
17177;SDS011;8704;52.006;4.374;2024-02-21T09:47:40;18.98;;;16.95;;
17177;SDS011;8704;52.006;4.374;2024-02-21T09:50:19;18.23;;;15.25;;
17177;SDS011;8704;52.006;4.374;2024-02-21T09:52:48;19.38;;;14.30;;
17177;SDS011;8704;52.006;4.374;2024-02-21T09:55:18;20.00;;;15.07;;
17177;SDS011;8704;52.006;4.374;2024-02-21T09:57:47;14.50;;;12.82;;
17177;SDS011;8704;52.006;4.374;2024-02-21T10:00:17;18.98;;;13.48;;
17177;SDS011;8704;52.006;4.374;2024-02-21T10:02:48;17.85;;;14.60;;
17177;SDS011;8704;52.006;4.374;2024-02-21T10:05:17;20.27;;;14.82;;
17177;SDS011;8704;52.006;4.374;2024-02-21T10:07:46;18.13;;;14.98;;
17177;SDS011;8704;52.006;4.374;2024-02-21T10:10:17;19.70;;;15.85;;
17177;SDS011;8704;52.006;4.374;2024-02-21T10:12:48;17.35;;;15.60;;
17177;SDS011;8704;52.006;4.374;2024-02-21T10:15:19;17.50;;;15.10;;
17177;SDS011;8704;52.006;4.374;2024-02-21T10:17:57;17.25;;;15.35;;
17177;SDS011;8704;52.006;4.374;2024-02-21T10:20:28;16.60;;;14.27;;
17177;SDS011;8704;52.006;4.374;2024-02-21T10:23:00;15.35;;;13.35;;
17177;SDS011;8704;52.006;4.374;2024-02-21T10:25:30;20.95;;;14.98;;
17177;SDS011;8704;52.006;4.374;2024-02-21T10:27:58;19.33;;;14.70;;
17177;SDS011;8704;52.006;4.374;2024-02-21T10:30:26;16.13;;;14.45;;
17177;SDS011;8704;52.006;4.374;2024-02-21T10:32:54;17.40;;;13.90;;
17177;SDS011;8704;52.006;4.374;2024-02-21T10:35:28;15.05;;;13.52;;
17177;SDS011;8704;52.006;4.374;2024-02-21T10:37:57;17.00;;;15.20;;
17177;SDS011;8704;52.006;4.374;2024-02-21T10:40:26;14.98;;;12.93;;
17177;SDS011;8704;52.006;4.374;2024-02-21T10:42:57;15.00;;;13.50;;
17177;SDS011;8704;52.006;4.374;2024-02-21T10:45:29;19.80;;;13.98;;
17177;SDS011;8704;52.006;4.374;2024-02-21T10:50:40;17.40;;;15.70;;
17177;SDS011;8704;52.006;4.374;2024-02-21T10:53:24;16.05;;;14.43;;
17177;SDS011;8704;52.006;4.374;2024-02-21T10:56:01;16.60;;;13.93;;
17177;SDS011;8704;52.006;4.374;2024-02-21T10:58:39;16.58;;;14.90;;
17177;SDS011;8704;52.006;4.374;2024-02-21T11:01:08;17.80;;;15.57;;
17177;SDS011;8704;52.006;4.374;2024-02-21T11:03:39;14.98;;;13.38;;
17177;SDS011;8704;52.006;4.374;2024-02-21T11:06:11;16.58;;;14.68;;
17177;SDS011;8704;52.006;4.374;2024-02-21T11:08:40;16.73;;;14.38;;
17177;SDS011;8704;52.006;4.374;2024-02-21T11:11:08;16.38;;;13.95;;
17177;SDS011;8704;52.006;4.374;2024-02-21T11:14:06;18.90;;;15.80;;
17177;SDS011;8704;52.006;4.374;2024-02-21T11:16:36;20.02;;;14.65;;
17177;SDS011;8704;52.006;4.374;2024-02-21T11:19:07;17.48;;;15.63;;
17177;SDS011;8704;52.006;4.374;2024-02-21T11:21:38;17.95;;;13.90;;
17177;SDS011;8704;52.006;4.374;2024-02-21T11:24:08;17.40;;;13.07;;
17177;SDS011;8704;52.006;4.374;2024-02-21T11:26:36;17.35;;;14.15;;
17177;SDS011;8704;52.006;4.374;2024-02-21T11:29:05;18.70;;;15.18;;
17177;SDS011;8704;52.006;4.374;2024-02-21T11:31:38;16.08;;;14.40;;
17177;SDS011;8704;52.006;4.374;2024-02-21T11:34:08;15.38;;;13.25;;
17177;SDS011;8704;52.006;4.374;2024-02-21T11:36:47;15.52;;;12.43;;
17177;SDS011;8704;52.006;4.374;2024-02-21T11:39:20;16.02;;;12.63;;
17177;SDS011;8704;52.006;4.374;2024-02-21T11:42:02;15.85;;;11.70;;
17177;SDS011;8704;52.006;4.374;2024-02-21T11:44:31;15.53;;;13.03;;
17177;SDS011;8704;52.006;4.374;2024-02-21T11:46:59;17.23;;;12.02;;
17177;SDS011;8704;52.006;4.374;2024-02-21T11:49:28;19.02;;;11.73;;
17177;SDS011;8704;52.006;4.374;2024-02-21T11:52:01;16.98;;;11.95;;
17177;SDS011;8704;52.006;4.374;2024-02-21T11:54:30;13.98;;;11.10;;
17177;SDS011;8704;52.006;4.374;2024-02-21T11:56:59;13.43;;;10.43;;
17177;SDS011;8704;52.006;4.374;2024-02-21T11:59:29;13.35;;;10.15;;
17177;SDS011;8704;52.006;4.374;2024-02-21T12:01:58;14.05;;;11.07;;
17177;SDS011;8704;52.006;4.374;2024-02-21T12:04:29;12.00;;;10.18;;
17177;SDS011;8704;52.006;4.374;2024-02-21T12:06:58;14.23;;;10.52;;
17177;SDS011;8704;52.006;4.374;2024-02-21T12:09:30;13.50;;;9.30;;
17177;SDS011;8704;52.006;4.374;2024-02-21T12:11:58;13.18;;;9.13;;
17177;SDS011;8704;52.006;4.374;2024-02-21T12:14:28;13.35;;;9.00;;
17177;SDS011;8704;52.006;4.374;2024-02-21T12:16:57;11.77;;;9.15;;
17177;SDS011;8704;52.006;4.374;2024-02-21T12:19:28;11.52;;;9.50;;
17177;SDS011;8704;52.006;4.374;2024-02-21T12:21:56;14.10;;;10.07;;
17177;SDS011;8704;52.006;4.374;2024-02-21T12:24:28;15.50;;;9.80;;
17177;SDS011;8704;52.006;4.374;2024-02-21T12:26:57;14.38;;;10.35;;
17177;SDS011;8704;52.006;4.374;2024-02-21T12:29:26;14.85;;;10.05;;
17177;SDS011;8704;52.006;4.374;2024-02-21T12:31:55;11.52;;;10.18;;
17177;SDS011;8704;52.006;4.374;2024-02-21T12:34:23;13.20;;;10.23;;
17177;SDS011;8704;52.006;4.374;2024-02-21T12:37:10;14.88;;;9.73;;
17177;SDS011;8704;52.006;4.374;2024-02-21T12:39:41;15.98;;;11.30;;
17177;SDS011;8704;52.006;4.374;2024-02-21T12:42:10;11.60;;;9.35;;
17177;SDS011;8704;52.006;4.374;2024-02-21T12:44:38;11.25;;;9.43;;
17177;SDS011;8704;52.006;4.374;2024-02-21T12:47:06;12.35;;;10.38;;
17177;SDS011;8704;52.006;4.374;2024-02-21T12:49:35;14.95;;;10.82;;
17177;SDS011;8704;52.006;4.374;2024-02-21T12:52:05;12.43;;;9.70;;
17177;SDS011;8704;52.006;4.374;2024-02-21T12:54:33;13.52;;;10.57;;
17177;SDS011;8704;52.006;4.374;2024-02-21T12:57:03;12.52;;;10.88;;
17177;SDS011;8704;52.006;4.374;2024-02-21T12:59:31;17.35;;;11.13;;
17177;SDS011;8704;52.006;4.374;2024-02-21T13:01:59;14.10;;;10.25;;
17177;SDS011;8704;52.006;4.374;2024-02-21T13:04:27;16.65;;;11.80;;
17177;SDS011;8704;52.006;4.374;2024-02-21T13:06:55;14.02;;;11.70;;
17177;SDS011;8704;52.006;4.374;2024-02-21T13:09:23;15.02;;;12.15;;
17177;SDS011;8704;52.006;4.374;2024-02-21T13:11:52;14.23;;;12.07;;
17177;SDS011;8704;52.006;4.374;2024-02-21T13:14:21;13.45;;;11.45;;
17177;SDS011;8704;52.006;4.374;2024-02-21T13:16:50;13.95;;;12.32;;
17177;SDS011;8704;52.006;4.374;2024-02-21T13:19:18;14.25;;;12.18;;
17177;SDS011;8704;52.006;4.374;2024-02-21T13:21:47;14.48;;;12.27;;
17177;SDS011;8704;52.006;4.374;2024-02-21T13:24:15;17.08;;;14.45;;
17177;SDS011;8704;52.006;4.374;2024-02-21T13:26:43;17.10;;;14.70;;
17177;SDS011;8704;52.006;4.374;2024-02-21T13:29:11;18.70;;;13.70;;
17177;SDS011;8704;52.006;4.374;2024-02-21T13:31:40;15.52;;;13.93;;
17177;SDS011;8704;52.006;4.374;2024-02-21T13:34:08;16.08;;;13.82;;
17177;SDS011;8704;52.006;4.374;2024-02-21T13:36:37;19.52;;;14.15;;
17177;SDS011;8704;52.006;4.374;2024-02-21T13:39:06;16.90;;;15.05;;
17177;SDS011;8704;52.006;4.374;2024-02-21T13:41:39;18.10;;;15.23;;
17177;SDS011;8704;52.006;4.374;2024-02-21T13:44:07;20.15;;;16.60;;
17177;SDS011;8704;52.006;4.374;2024-02-21T13:46:35;19.55;;;17.33;;
17177;SDS011;8704;52.006;4.374;2024-02-21T13:49:07;19.90;;;17.58;;
17177;SDS011;8704;52.006;4.374;2024-02-21T13:51:35;20.42;;;16.83;;
17177;SDS011;8704;52.006;4.374;2024-02-21T13:54:03;19.02;;;17.02;;
17177;SDS011;8704;52.006;4.374;2024-02-21T13:56:35;21.63;;;15.43;;
17177;SDS011;8704;52.006;4.374;2024-02-21T13:59:03;15.63;;;13.88;;
17177;SDS011;8704;52.006;4.374;2024-02-21T14:01:31;19.80;;;17.85;;
17177;SDS011;8704;52.006;4.374;2024-02-21T14:04:00;19.15;;;17.25;;
17177;SDS011;8704;52.006;4.374;2024-02-21T14:06:29;19.70;;;17.60;;
17177;SDS011;8704;52.006;4.374;2024-02-21T14:08:57;18.10;;;16.25;;
17177;SDS011;8704;52.006;4.374;2024-02-21T14:11:25;15.75;;;14.25;;
17177;SDS011;8704;52.006;4.374;2024-02-21T14:13:54;18.95;;;15.35;;
17177;SDS011;8704;52.006;4.374;2024-02-21T14:16:24;18.73;;;16.83;;
17177;SDS011;8704;52.006;4.374;2024-02-21T14:18:52;16.70;;;14.38;;
17177;SDS011;8704;52.006;4.374;2024-02-21T14:21:21;16.75;;;15.05;;
17177;SDS011;8704;52.006;4.374;2024-02-21T14:23:51;15.48;;;13.95;;
17177;SDS011;8704;52.006;4.374;2024-02-21T14:26:19;15.65;;;14.20;;
17177;SDS011;8704;52.006;4.374;2024-02-21T14:28:48;18.05;;;16.45;;
17177;SDS011;8704;52.006;4.374;2024-02-21T14:31:16;16.83;;;15.23;;
17177;SDS011;8704;52.006;4.374;2024-02-21T14:33:45;18.50;;;16.70;;
17177;SDS011;8704;52.006;4.374;2024-02-21T14:36:13;17.10;;;15.55;;
17177;SDS011;8704;52.006;4.374;2024-02-21T14:38:42;19.70;;;17.65;;
17177;SDS011;8704;52.006;4.374;2024-02-21T14:41:12;17.35;;;15.90;;
17177;SDS011;8704;52.006;4.374;2024-02-21T14:43:41;19.05;;;17.10;;
17177;SDS011;8704;52.006;4.374;2024-02-21T14:46:10;17.35;;;16.02;;
17177;SDS011;8704;52.006;4.374;2024-02-21T14:48:39;17.48;;;16.08;;
17177;SDS011;8704;52.006;4.374;2024-02-21T14:51:07;21.35;;;19.40;;